Time;durP1;ratioP1;P1;durP2;ratioP2;P2;SDS_P1;SDS_P2;PMS_P1;PMS_P2;Temp;Humidity;BMP_temperature;BMP_pressure;BME280_temperature;BME280_humidity;BME280_pressure;Samples;Min_cycle;Max_cycle;Signal;HPM_P1;HPM_P2
2022/07/24 00:01:08;;;;;;;8.90;3.90;;;;;;;29.22;45.23;100412.50;4974169;28;20031;-83
2022/07/24 00:03:34;;;;;;;11.57;4.78;;;;;;;29.32;44.64;100411.59;4974581;28;20041;-84
2022/07/24 00:06:00;;;;;;;12.30;4.40;;;;;;;29.24;44.42;100411.09;4974806;28;20037;-83
2022/07/24 00:08:25;;;;;;;14.50;4.60;;;;;;;29.03;45.40;100415.13;4976116;28;20039;-85
2022/07/24 00:10:51;;;;;;;8.70;4.32;;;;;;;28.91;45.53;100411.94;4957841;28;20050;-83
2022/07/24 00:13:16;;;;;;;10.27;4.93;;;;;;;28.82;46.11;100413.66;4975416;28;20094;-82
2022/07/24 00:15:42;;;;;;;12.15;4.57;;;;;;;28.65;46.20;100418.66;4976094;28;20073;-84
2022/07/24 00:18:08;;;;;;;12.23;4.55;;;;;;;28.65;46.67;100407.75;4975046;28;20046;-83
2022/07/24 00:20:33;;;;;;;10.88;4.95;;;;;;;28.64;46.62;100411.56;4980152;28;20035;-83
2022/07/24 00:22:58;;;;;;;9.38;4.80;;;;;;;28.61;46.83;100421.16;4979141;28;20105;-83
2022/07/24 00:25:24;;;;;;;8.98;4.60;;;;;;;28.46;47.07;100425.91;4958469;28;20038;-84
2022/07/24 00:27:50;;;;;;;11.57;5.18;;;;;;;28.48;47.79;100426.41;4974750;28;20047;-83
2022/07/24 00:30:15;;;;;;;10.43;4.65;;;;;;;28.46;47.46;100431.34;4975374;28;20037;-83
2022/07/24 00:32:41;;;;;;;14.18;5.07;;;;;;;28.36;48.28;100426.78;4977302;28;20075;-85
2022/07/24 00:35:09;;;;;;;13.73;5.30;;;;;;;28.23;48.75;100424.66;4977392;28;20031;-82
2022/07/24 00:37:34;;;;;;;16.08;5.28;;;;;;;28.15;49.47;100426.06;4959552;28;20511;-83
2022/07/24 00:40:00;;;;;;;9.77;4.68;;;;;;;28.19;49.40;100427.13;4975250;28;20086;-83
2022/07/24 00:42:26;;;;;;;14.70;5.55;;;;;;;28.20;49.52;100428.78;4974150;28;20483;-85
2022/07/24 00:44:51;;;;;;;10.60;5.38;;;;;;;28.19;50.16;100429.88;4973691;28;20102;-83
2022/07/24 00:47:17;;;;;;;15.30;5.63;;;;;;;28.27;50.17;100427.66;4974035;28;20069;-83
2022/07/24 00:49:42;;;;;;;16.67;5.82;;;;;;;28.15;50.22;100423.34;4973827;28;20484;-82
2022/07/24 00:52:08;;;;;;;11.80;5.10;;;;;;;28.03;50.80;100433.72;4973736;28;20046;-84
2022/07/24 00:54:33;;;;;;;12.10;5.00;;;;;;;27.90;51.10;100420.72;4956542;28;20042;-84
2022/07/24 00:56:59;;;;;;;13.70;5.55;;;;;;;27.93;51.46;100428.31;4975573;28;20049;-84
2022/07/24 00:59:24;;;;;;;10.73;4.85;;;;;;;27.96;51.77;100421.50;4977164;28;20043;-83
2022/07/24 01:01:51;;;;;;;19.52;5.47;;;;;;;27.86;52.27;100427.81;4977225;28;20035;-83
2022/07/24 01:04:17;;;;;;;14.23;5.50;;;;;;;28.02;51.49;100434.81;4977266;28;20126;-83
2022/07/24 01:06:44;;;;;;;12.98;5.18;;;;;;;28.14;51.67;100443.50;4977082;28;20034;-83
2022/07/24 01:09:10;;;;;;;9.63;4.90;;;;;;;28.24;51.33;100456.25;4960178;28;20089;-84
2022/07/24 01:11:36;;;;;;;12.75;5.13;;;;;;;28.00;52.72;100456.09;4977163;28;20039;-82
2022/07/24 01:14:02;;;;;;;13.60;5.40;;;;;;;27.96;52.89;100463.19;4990746;28;20476;-83
2022/07/24 01:16:27;;;;;;;11.45;5.05;;;;;;;27.94;53.18;100457.16;4996572;28;20073;-82
2022/07/24 01:18:53;;;;;;;12.23;5.25;;;;;;;27.85;53.86;100458.03;4979115;28;20054;-81
2022/07/24 01:21:19;;;;;;;17.17;5.50;;;;;;;27.93;53.81;100460.19;4996582;28;20465;-84
2022/07/24 01:23:44;;;;;;;12.80;5.38;;;;;;;27.93;53.79;100449.28;4996426;28;20029;-82
2022/07/24 01:26:10;;;;;;;16.58;5.85;;;;;;;27.96;54.16;100455.00;4996532;28;20502;-84
2022/07/24 01:28:36;;;;;;;14.30;5.50;;;;;;;27.85;54.92;100447.13;4997785;28;20488;-83
2022/07/24 01:31:02;;;;;;;12.23;5.22;;;;;;;27.78;54.75;100458.31;4996995;28;20030;-83
2022/07/24 01:33:28;;;;;;;13.18;5.28;;;;;;;27.72;55.61;100453.97;4997901;28;20451;-83
2022/07/24 01:35:53;;;;;;;11.02;5.30;;;;;;;27.79;55.54;100454.50;4996671;28;20060;-82
2022/07/24 01:38:19;;;;;;;9.77;5.10;;;;;;;27.84;55.07;100451.75;4998013;28;20030;-83
2022/07/24 01:40:44;;;;;;;13.98;5.07;;;;;;;27.72;55.48;100459.44;4989823;28;20198;-85
2022/07/24 01:43:13;;;;;;;10.00;5.53;;;;;;;27.55;56.12;100464.38;4993420;28;20038;-85
2022/07/24 01:45:38;;;;;;;9.20;5.38;;;;;;;27.61;55.48;100464.09;5010817;28;20030;-85
2022/07/24 01:48:04;;;;;;;11.65;5.15;;;;;;;27.67;55.01;100462.19;4992414;28;20067;-85
2022/07/24 01:50:30;;;;;;;14.52;5.38;;;;;;;27.63;55.24;100466.53;4992954;28;20039;-85
2022/07/24 01:52:57;;;;;;;12.07;5.55;;;;;;;27.53;55.35;100463.84;4976209;28;20026;-85
2022/07/24 01:55:23;;;;;;;11.00;5.47;;;;;;;27.46;55.84;100466.03;4993805;28;20045;-86
2022/07/24 01:57:51;;;;;;;14.18;5.20;;;;;;;27.28;57.03;100461.13;5011391;28;20462;-85
2022/07/24 02:00:17;;;;;;;9.52;5.03;;;;;;;27.30;56.51;100461.66;5011878;28;20480;-85
2022/07/24 02:02:44;;;;;;;18.92;5.57;;;;;;;27.55;56.04;100461.66;4994145;28;20508;-85
2022/07/24 02:05:14;;;;;;;14.73;5.57;;;;;;;27.57;55.97;100462.19;4993523;28;20039;-85
2022/07/24 02:07:41;;;;;;;13.13;5.05;;;;;;;27.49;56.03;100454.59;5009377;28;20034;-86
2022/07/24 02:10:08;;;;;;;16.95;5.53;;;;;;;27.28;56.89;100455.69;4991722;28;20038;-83
2022/07/24 02:12:34;;;;;;;9.27;5.15;;;;;;;27.08;58.01;100454.59;5008662;28;20042;-84
2022/07/24 02:15:02;;;;;;;11.82;5.15;;;;;;;27.00;58.26;100462.47;5010135;28;20054;-85
2022/07/24 02:17:28;;;;;;;14.95;5.35;;;;;;;26.97;58.84;100458.41;5007758;28;20034;-85
2022/07/24 02:19:53;;;;;;;11.93;5.10;;;;;;;26.91;59.17;100459.50;5005634;28;20101;-83
2022/07/24 02:22:19;;;;;;;10.20;4.82;;;;;;;26.77;59.35;100466.53;5006589;28;20058;-84
2022/07/24 02:24:45;;;;;;;13.13;5.15;;;;;;;26.76;59.27;100466.78;4989918;28;20041;-84
2022/07/24 02:27:13;;;;;;;14.02;5.55;;;;;;;26.68;59.40;100471.66;4989513;28;20395;-85
2022/07/24 02:29:39;;;;;;;8.73;5.20;;;;;;;26.84;59.36;100475.25;4988384;28;20039;-85
2022/07/24 02:32:06;;;;;;;8.57;5.10;;;;;;;26.81;59.35;100474.97;5006605;28;20038;-83
2022/07/24 02:34:31;;;;;;;20.80;6.18;;;;;;;26.64;60.09;100472.47;4987984;28;20065;-85
2022/07/24 02:40:45;;;;;;;16.17;5.13;;;;;;;26.91;59.13;100478.53;5008112;28;20060;-84
2022/07/24 02:43:11;;;;;;;12.40;5.30;;;;;;;26.99;58.95;100467.09;5007589;28;20054;-85
2022/07/24 02:45:38;;;;;;;13.05;5.43;;;;;;;26.88;60.10;100470.88;4989500;28;20035;-85
2022/07/24 02:48:04;;;;;;;16.23;5.28;;;;;;;26.94;59.70;100472.56;4989909;28;20027;-86
2022/07/24 02:50:31;;;;;;;14.65;5.47;;;;;;;26.87;59.80;100473.91;5008722;28;20038;-84
2022/07/24 02:52:57;;;;;;;15.18;5.57;;;;;;;26.73;60.50;100473.56;5006961;28;20038;-85
2022/07/24 02:55:23;;;;;;;8.73;5.10;;;;;;;26.59;61.13;100478.72;5009666;28;20061;-84
2022/07/24 02:57:49;;;;;;;13.18;5.03;;;;;;;26.60;61.27;100474.09;4991536;28;20044;-86
2022/07/24 03:00:16;;;;;;;11.55;4.85;;;;;;;26.49;62.05;100486.84;5009298;28;20120;-85
2022/07/24 03:02:43;;;;;;;10.90;5.13;;;;;;;26.49;62.29;100478.69;4994570;28;20038;-86
2022/07/24 03:05:11;;;;;;;17.52;5.57;;;;;;;26.50;62.61;100476.78;4980973;28;20110;-87
2022/07/24 03:07:36;;;;;;;10.50;5.47;;;;;;;26.50;62.01;100479.50;4964414;28;20054;-86
2022/07/24 03:10:07;;;;;;;13.07;5.20;;;;;;;26.50;62.15;100482.22;4980418;28;20108;-85
2022/07/24 03:12:33;;;;;;;11.95;5.47;;;;;;;26.43;62.52;100485.19;4996617;28;20031;-86
2022/07/24 03:14:58;;;;;;;11.48;4.97;;;;;;;26.38;62.51;100487.09;4981025;28;20058;-87
2022/07/24 03:17:27;;;;;;;12.95;5.97;;;;;;;26.41;61.82;100475.69;4996507;28;20034;-86
2022/07/24 03:19:53;;;;;;;12.15;5.75;;;;;;;26.33;62.64;100481.63;5013687;28;20056;-85
2022/07/24 03:22:23;;;;;;;8.13;4.90;;;;;;;26.44;61.66;100475.97;4995602;28;20026;-86
2022/07/24 03:24:48;;;;;;;11.73;5.32;;;;;;;26.56;61.33;100483.88;4965136;28;20042;-85
2022/07/24 03:27:14;;;;;;;18.50;5.53;;;;;;;26.60;60.74;100485.78;4995539;28;20129;-86
2022/07/24 03:29:40;;;;;;;11.10;5.05;;;;;;;26.58;61.08;100498.03;4976812;28;20125;-87
2022/07/24 03:32:06;;;;;;;10.18;5.40;;;;;;;26.72;60.35;100499.13;4994642;28;20031;-87
2022/07/24 03:34:31;;;;;;;10.93;5.18;;;;;;;26.77;60.65;100490.16;4993917;28;20026;-86
2022/07/24 03:36:57;;;;;;;17.02;5.35;;;;;;;26.72;61.23;100494.50;4992762;28;20125;-86
2022/07/24 03:39:23;;;;;;;13.75;5.57;;;;;;;26.62;61.96;100499.09;4992497;28;20035;-87
2022/07/24 03:41:48;;;;;;;12.75;5.72;;;;;;;26.51;61.48;100497.47;4992965;28;20098;-86
2022/07/24 03:44:14;;;;;;;11.55;5.07;;;;;;;26.46;61.57;100497.44;4994182;28;20062;-84
2022/07/24 03:46:44;;;;;;;12.68;5.50;;;;;;;26.47;60.92;100496.34;4977218;28;20525;-88
2022/07/24 03:49:30;;;;;;;13.32;5.38;;;;;;;26.44;61.65;100495.00;4993264;28;20038;-87
2022/07/24 03:52:01;;;;;;;14.30;5.57;;;;;;;26.58;60.56;100501.53;4994117;28;20046;-86
2022/07/24 03:54:26;;;;;;;7.90;4.55;;;;;;;26.54;60.54;100497.75;4962216;28;20039;-86
2022/07/24 03:56:52;;;;;;;11.45;4.95;;;;;;;26.50;60.77;100495.81;4994488;28;20039;-88
2022/07/24 03:59:18;;;;;;;11.32;4.78;;;;;;;26.51;60.90;100497.47;4995367;28;20089;-87
2022/07/24 04:01:44;;;;;;;11.32;4.97;;;;;;;26.55;60.44;100501.25;4960964;28;20054;-87
2022/07/24 04:04:13;;;;;;;8.90;4.97;;;;;;;26.66;59.91;100505.63;4994214;28;20042;-88
2022/07/24 04:06:40;;;;;;;8.07;5.35;;;;;;;26.55;60.73;100509.41;4993681;28;20039;-86
2022/07/24 04:09:06;;;;;;;13.65;4.80;;;;;;;26.68;59.96;100506.22;4977032;28;20045;-89
2022/07/24 04:11:33;;;;;;;12.10;5.00;;;;;;;26.64;60.34;100515.97;4977713;28;20027;-88
2022/07/24 04:14:03;;;;;;;11.10;5.00;;;;;;;26.67;60.10;100512.72;4977692;28;20059;-86
2022/07/24 04:16:32;;;;;;;13.35;5.47;;;;;;;26.48;61.20;100504.22;4963100;28;20066;-86
2022/07/24 04:18:59;;;;;;;13.50;5.38;;;;;;;26.36;61.91;100506.38;4994156;28;20047;-86
2022/07/24 04:21:24;;;;;;;13.35;5.63;;;;;;;26.47;61.80;100507.22;4978253;28;20066;-86
2022/07/24 04:23:50;;;;;;;10.55;5.65;;;;;;;26.61;61.42;100508.34;4979087;28;20015;-86
2022/07/24 04:26:16;;;;;;;9.93;4.78;;;;;;;26.82;60.28;100518.22;4979578;28;20098;-86
2022/07/24 04:28:43;;;;;;;8.73;4.78;;;;;;;26.64;61.27;100514.09;4970158;28;20069;-86
2022/07/24 04:31:09;;;;;;;10.65;4.85;;;;;;;26.59;61.42;100510.50;5016476;28;20040;-87
2022/07/24 04:33:34;;;;;;;12.45;5.20;;;;;;;26.64;61.20;100519.53;5018409;28;20098;-86
2022/07/24 04:36:00;;;;;;;13.80;5.13;;;;;;;26.50;61.64;100514.84;5018562;28;20030;-88
2022/07/24 04:38:26;;;;;;;12.80;5.82;;;;;;;26.46;62.03;100521.88;4985960;28;20015;-86
2022/07/24 04:40:51;;;;;;;9.48;5.53;;;;;;;26.53;61.71;100517.03;5019427;28;20034;-89
2022/07/24 04:43:18;;;;;;;10.45;5.40;;;;;;;26.36;62.62;100524.56;5001683;28;20031;-88
2022/07/24 04:45:44;;;;;;;11.65;5.10;;;;;;;26.46;62.42;100521.88;4985166;28;20053;-91
2022/07/24 04:48:10;;;;;;;17.95;5.22;;;;;;;26.45;62.28;100520.28;4984871;28;20041;-88
2022/07/24 04:50:39;;;;;;;11.10;4.70;;;;;;;26.70;61.72;100520.34;5018308;28;20054;-90
2022/07/24 04:53:04;;;;;;;12.13;4.78;;;;;;;26.81;61.45;100516.59;4985307;28;20053;-89
2022/07/24 04:55:31;;;;;;;11.50;5.40;;;;;;;26.77;62.29;100523.63;4999598;28;20014;-89
2022/07/24 04:57:56;;;;;;;7.65;5.20;;;;;;;26.77;62.45;100523.63;4984326;28;20065;-87
2022/07/24 05:00:24;;;;;;;13.57;5.20;;;;;;;26.53;63.91;100519.75;5017309;28;20057;-87
2022/07/24 05:02:50;;;;;;;12.90;5.30;;;;;;;26.51;64.07;100525.47;5000272;28;20058;-89
2022/07/24 05:05:16;;;;;;;12.25;5.53;;;;;;;26.48;64.47;100525.97;5017031;28;20046;-88
2022/07/24 05:07:42;;;;;;;20.17;5.57;;;;;;;26.65;63.21;100523.03;5000969;28;20069;-87
2022/07/24 05:10:14;;;;;;;12.13;5.50;;;;;;;26.84;63.25;100520.69;5000685;28;20025;-87
2022/07/24 05:12:43;;;;;;;18.23;5.40;;;;;;;26.81;63.38;100529.34;4999810;28;20038;-89
2022/07/24 05:15:12;;;;;;;11.55;5.00;;;;;;;26.84;63.33;100528.84;5000915;28;20036;-88
2022/07/24 05:17:38;;;;;;;17.80;5.63;;;;;;;26.83;63.95;100528.00;4984277;28;20102;-86
2022/07/24 05:20:06;;;;;;;20.73;5.38;;;;;;;26.81;64.05;100530.19;5017463;28;20484;-87
2022/07/24 05:22:32;;;;;;;18.42;5.53;;;;;;;26.80;64.08;100535.88;4984701;28;20065;-88
2022/07/24 05:24:57;;;;;;;16.80;5.32;;;;;;;26.86;63.57;100535.63;5017100;28;20034;-90
2022/07/24 05:27:23;;;;;;;18.08;6.03;;;;;;;27.02;63.68;100537.28;5017008;28;20050;-89
2022/07/24 05:29:48;;;;;;;18.08;6.05;;;;;;;26.96;64.09;100538.38;4999682;28;20039;-87
2022/07/24 05:32:14;;;;;;;14.02;5.03;;;;;;;26.98;64.12;100547.06;4999721;28;20038;-86
2022/07/24 05:34:40;;;;;;;19.45;5.90;;;;;;;26.97;64.79;100550.91;5017381;28;20041;-88
2022/07/24 05:37:08;;;;;;;24.90;6.15;;;;;;;27.01;64.45;100546.53;5017495;28;20021;-91
2022/07/24 05:39:34;;;;;;;18.65;5.88;;;;;;;27.19;64.35;100548.75;5000683;28;20062;-90
2022/07/24 05:42:00;;;;;;;18.40;6.35;;;;;;;27.41;63.62;100544.97;4999661;28;20039;-89
2022/07/24 05:44:25;;;;;;;13.82;5.40;;;;;;;27.61;63.07;100550.41;5016722;28;20072;-91
2022/07/24 05:46:51;;;;;;;14.63;5.75;;;;;;;27.77;62.97;100548.50;4999426;28;20041;-92
2022/07/24 05:49:22;;;;;;;13.02;6.03;;;;;;;27.90;62.19;100548.75;5000757;28;20043;-89
2022/07/24 05:51:50;;;;;;;13.63;5.50;;;;;;;28.14;61.88;100544.34;4984341;28;20045;-90
2022/07/24 05:54:15;;;;;;;15.73;5.60;;;;;;;28.45;60.68;100550.50;4999199;28;20090;-89
2022/07/24 05:56:43;;;;;;;9.68;5.43;;;;;;;28.53;61.04;100554.56;4999295;28;20042;-88
2022/07/24 05:59:09;;;;;;;23.42;5.93;;;;;;;28.71;60.41;100556.69;5019471;28;20049;-88
2022/07/24 06:01:34;;;;;;;16.70;5.97;;;;;;;28.82;60.06;100552.81;5019660;28;20018;-85
2022/07/24 06:04:00;;;;;;;9.10;6.00;;;;;;;29.10;59.86;100552.06;4986929;28;20047;-85
2022/07/24 06:06:26;;;;;;;13.55;5.22;;;;;;;29.32;58.93;100556.31;5002777;28;20094;-85
2022/07/24 06:08:54;;;;;;;14.38;6.00;;;;;;;29.63;58.16;100546.78;5003289;28;20086;-86
2022/07/24 06:11:20;;;;;;;17.60;5.70;;;;;;;29.82;57.96;100550.41;4987041;28;20018;-87
2022/07/24 06:13:45;;;;;;;9.73;5.53;;;;;;;29.94;57.30;100560.97;5002556;28;20057;-88
2022/07/24 06:16:11;;;;;;;17.33;5.82;;;;;;;30.20;56.65;100557.66;5000812;28;20049;-91
2022/07/24 06:18:37;;;;;;;12.32;5.63;;;;;;;30.56;55.81;100557.28;5000578;28;20026;-89
2022/07/24 06:21:03;;;;;;;13.30;5.82;;;;;;;30.86;54.43;100562.31;5017102;28;20041;-88
2022/07/24 06:23:30;;;;;;;11.40;6.60;;;;;;;30.81;54.81;100562.41;5016287;28;20130;-88
2022/07/24 06:25:57;;;;;;;16.00;7.22;;;;;;;30.71;55.46;100568.00;4980356;28;20054;-90
2022/07/24 06:28:23;;;;;;;17.42;7.03;;;;;;;30.77;55.61;100566.81;4979101;28;20047;-90
2022/07/24 06:30:48;;;;;;;13.73;6.97;;;;;;;30.70;56.25;100574.59;4993577;28;20035;-86
2022/07/24 06:33:14;;;;;;;17.73;7.13;;;;;;;30.88;56.08;100576.53;4976185;28;20039;-87
2022/07/24 06:35:39;;;;;;;13.07;7.20;;;;;;;30.93;55.79;100579.19;4992337;28;20072;-88
2022/07/24 06:38:06;;;;;;;10.20;6.72;;;;;;;31.34;54.40;100573.94;4994667;28;20031;-85
2022/07/24 06:40:34;;;;;;;13.63;6.65;;;;;;;31.25;54.24;100579.28;4995338;28;20038;-88
2022/07/24 06:43:00;;;;;;;12.50;6.32;;;;;;;31.39;53.98;100576.59;4962777;28;20050;-87
2022/07/24 06:45:26;;;;;;;13.73;6.90;;;;;;;31.68;52.52;100573.69;4995458;28;20039;-90
2022/07/24 06:47:51;;;;;;;23.67;7.57;;;;;;;31.39;53.35;100570.31;4978434;28;20062;-88
2022/07/24 06:50:18;;;;;;;17.05;6.70;;;;;;;31.47;53.58;100575.09;4995000;28;20098;-87
2022/07/24 06:52:45;;;;;;;16.80;7.43;;;;;;;31.53;52.68;100580.22;4978128;28;20043;-87
2022/07/24 06:55:11;;;;;;;17.90;7.85;;;;;;;31.63;51.89;100576.50;4995880;28;20034;-87
2022/07/24 06:57:37;;;;;;;21.65;7.45;;;;;;;31.89;51.88;100571.38;4978136;28;20065;-87
2022/07/24 07:00:05;;;;;;;24.30;8.52;;;;;;;31.69;52.76;100578.03;4994732;28;20099;-87
2022/07/24 07:02:31;;;;;;;11.48;8.18;;;;;;;31.76;52.46;100576.53;4974700;28;20043;-86
2022/07/24 07:04:57;;;;;;;18.75;8.50;;;;;;;31.93;51.91;100570.47;4991704;28;20062;-86
2022/07/24 07:07:24;;;;;;;16.42;7.50;;;;;;;31.94;51.98;100583.09;4991098;28;20123;-86
2022/07/24 07:09:49;;;;;;;13.23;7.40;;;;;;;31.98;52.27;100583.28;4992849;28;20039;-86
2022/07/24 07:12:15;;;;;;;17.33;8.32;;;;;;;31.75;53.36;100574.13;4992032;28;20111;-86
2022/07/24 07:14:40;;;;;;;18.23;9.32;;;;;;;31.67;54.05;100572.06;4991720;28;20047;-86
2022/07/24 07:17:06;;;;;;;18.33;8.90;;;;;;;31.78;53.54;100573.50;4991624;28;20090;-86
2022/07/24 07:19:32;;;;;;;14.43;8.88;;;;;;;32.03;53.50;100570.28;4993168;28;20047;-89
2022/07/24 07:21:58;;;;;;;19.38;10.50;;;;;;;32.31;53.19;100575.84;4992445;28;20035;-87
2022/07/24 07:24:25;;;;;;;14.45;8.70;;;;;;;32.49;52.92;100578.44;4994278;28;20049;-89
2022/07/24 07:26:51;;;;;;;15.75;9.90;;;;;;;32.50;53.91;100573.78;4994550;28;20035;-88
2022/07/24 07:29:20;;;;;;;17.00;10.27;;;;;;;32.60;54.28;100574.41;4961375;28;20049;-88
2022/07/24 07:31:46;;;;;;;22.98;10.23;;;;;;;32.85;53.18;100575.00;4995144;28;20022;-85
2022/07/24 07:34:11;;;;;;;18.70;10.65;;;;;;;32.84;53.74;100573.38;4992099;28;20085;-86
2022/07/24 07:36:38;;;;;;;16.58;9.80;;;;;;;32.96;52.48;100576.38;4995030;28;20034;-87
2022/07/24 07:39:31;;;;;;;21.83;9.95;;;;;;;33.43;50.75;100570.31;4978380;28;20039;-89
2022/07/24 07:41:56;;;;;;;12.38;8.40;;;;;;;33.86;49.21;100583.56;4962203;28;20047;-89
2022/07/24 07:44:25;;;;;;;16.13;9.10;;;;;;;33.85;48.87;100581.91;4996002;28;20050;-86
2022/07/24 07:46:53;;;;;;;19.60;8.73;;;;;;;33.33;51.10;100586.25;4990259;28;20078;-89
2022/07/24 07:49:19;;;;;;;17.30;8.20;;;;;;;33.49;50.44;100579.25;4976518;28;20066;-86
2022/07/24 07:51:47;;;;;;;16.90;8.13;;;;;;;33.59;50.74;100581.75;4993802;28;20043;-87
2022/07/24 07:54:16;;;;;;;14.43;8.13;;;;;;;33.96;49.19;100583.28;4992767;28;20042;-88
2022/07/24 07:56:41;;;;;;;15.85;9.18;;;;;;;33.88;49.15;100582.09;4991877;28;20094;-88
2022/07/24 07:59:08;;;;;;;16.60;8.68;;;;;;;33.70;50.13;100583.16;4993287;28;20046;-88
2022/07/24 08:01:35;;;;;;;13.68;8.65;;;;;;;33.67;51.00;100581.03;4993526;28;20027;-88
2022/07/24 08:04:01;;;;;;;12.80;8.80;;;;;;;33.66;51.49;100579.41;4992330;28;20035;-89
2022/07/24 08:06:27;;;;;;;14.93;9.18;;;;;;;33.98;50.07;100570.81;4983184;28;20035;-88
2022/07/24 08:09:03;;;;;;;16.48;8.20;;;;;;;34.11;50.04;100574.59;4982982;28;20515;-87
2022/07/24 08:11:29;;;;;;;20.88;9.70;;;;;;;33.69;51.12;100579.59;4995673;28;20444;-86
2022/07/24 08:13:59;;;;;;;13.70;8.10;;;;;;;33.91;49.57;100575.97;5038107;23;20521;-83
2022/07/24 08:16:28;;;;;;;14.27;8.43;;;;;;;34.24;49.18;100573.72;5007016;28;20133;-85
2022/07/24 08:19:06;;;;;;;17.60;8.18;;;;;;;34.17;49.32;100576.91;4993495;28;20069;-84
2022/07/24 08:21:35;;;;;;;;;;;;;;;34.20;48.95;100578.25;5010520;28;20030;-81
2022/07/24 08:24:01;;;;;;;14.75;9.95;;;;;;;34.58;46.73;100584.00;4996054;28;19921;-83
2022/07/24 08:26:30;;;;;;;14.32;9.05;;;;;;;34.68;46.17;100583.75;4980564;28;20042;-84
2022/07/24 08:29:02;;;;;;;21.27;9.77;;;;;;;34.44;45.81;100592.41;4967008;28;20064;-82
2022/07/24 08:31:28;;;;;;;12.32;8.60;;;;;;;34.49;45.67;100588.69;5016382;28;20030;-85
2022/07/24 08:33:54;;;;;;;16.88;9.98;;;;;;;34.50;46.05;100582.88;5003680;28;20072;-86
2022/07/24 08:36:24;;;;;;;13.20;8.23;;;;;;;35.42;44.10;100587.22;5019840;28;20053;-88
2022/07/24 08:39:33;;;;;;;13.88;8.32;;;;;;;35.92;43.38;100587.47;5013329;28;20021;-85
2022/07/24 08:42:19;;;;;;;17.92;9.23;;;;;;;35.80;42.72;100598.34;5023715;28;20014;-87
2022/07/24 08:45:10;;;;;;;12.13;8.43;;;;;;;35.35;43.65;100592.41;5002424;28;20049;-85
2022/07/24 08:47:44;;;;;;;13.90;7.93;;;;;;;35.67;43.22;100596.59;4999040;28;20109;-87
2022/07/24 08:50:42;;;;;;;13.73;8.88;;;;;;;35.28;44.33;100601.19;4994910;28;20109;-85
2022/07/24 08:53:55;;;;;;;;;;;;;;;;;;;;;
2022/07/24 08:56:56;;;;;;;16.15;8.90;;;;;;;35.21;44.77;100591.75;5023876;28;20082;-83
2022/07/24 08:59:34;;;;;;;12.20;7.47;;;;;;;35.55;44.17;100593.69;5077128;23;20050;-86
2022/07/24 09:05:10;;;;;;;;;;;;;;;35.83;43.07;100597.69;5096505;23;20013;-86
2022/07/24 09:07:39;;;;;;;14.48;7.78;;;;;;;36.40;41.48;100597.34;4982183;28;19929;-86
2022/07/24 09:10:21;;;;;;;13.90;7.60;;;;;;;36.27;41.78;100602.78;4970467;28;20035;-85
2022/07/24 09:13:17;;;;;;;11.70;7.32;;;;;;;36.33;42.06;100597.88;4987236;28;20053;-86
2022/07/24 09:16:05;;;;;;;15.88;7.05;;;;;;;36.81;41.13;100599.41;4985003;28;20078;-87
2022/07/24 09:18:38;;;;;;;14.70;7.18;;;;;;;36.78;41.55;100603.66;4997498;28;20050;-87
2022/07/24 09:21:32;;;;;;;16.63;6.70;;;;;;;36.69;41.14;100597.41;5009526;28;20042;-86
2022/07/24 09:24:26;;;;;;;17.60;7.18;;;;;;;36.57;41.43;100600.06;5020064;28;20045;-85
2022/07/24 09:31:22;;;;;;;9.60;6.20;;;;;;;35.87;41.94;100593.16;5020475;28;20098;-88
2022/07/24 09:51:03;;;;;;;15.07;7.60;;;;;;;35.96;41.22;100602.22;5038361;23;20031;-88
2022/07/24 10:24:42;;;;;;;16.15;7.97;;;;;;;37.24;37.83;100592.44;5389832;23;20042;-88
2022/07/24 10:32:04;;;;;;;16.05;7.20;;;;;;;37.45;37.75;100586.09;5000921;28;20070;-90
2022/07/24 10:35:21;;;;;;;14.73;8.30;;;;;;;37.68;37.16;100584.56;5000979;23;20043;-89
2022/07/24 10:38:29;;;;;;;15.38;7.88;;;;;;;36.85;38.65;100579.09;4959669;29;20049;-92
2022/07/24 10:41:32;;;;;;;13.30;8.00;;;;;;;36.93;38.12;100578.19;4974719;29;20058;-88
2022/07/24 10:52:34;;;;;;;16.45;8.82;;;;;;;36.31;39.45;100568.97;1033135;23;20317;-88
2022/07/24 10:55:43;;;;;;;21.58;8.65;;;;;;;36.52;39.01;100556.84;4963722;28;20094;-86
2022/07/24 10:58:09;;;;;;;19.08;8.00;;;;;;;36.80;38.44;100554.41;4977922;28;20015;-82
2022/07/24 11:00:59;;;;;;;13.43;7.75;;;;;;;37.11;37.97;100565.09;4961980;29;20047;-80
2022/07/24 11:03:30;;;;;;;17.55;8.07;;;;;;;37.19;37.49;100551.16;4964736;28;20026;-87
2022/07/24 11:06:05;;;;;;;19.23;8.38;;;;;;;37.36;37.52;100554.91;4953816;28;20082;-81
2022/07/24 11:08:52;;;;;;;13.68;8.13;;;;;;;36.89;38.61;100546.84;4995997;28;20034;-84
2022/07/24 11:11:51;;;;;;;17.10;8.05;;;;;;;37.23;37.76;100546.59;4986643;28;20030;-89
2022/07/24 11:20:38;;;;;;;14.00;7.28;;;;;;;36.67;38.77;100531.44;5083677;23;20038;-90
2022/07/24 11:23:39;;;;;;;19.92;7.13;;;;;;;36.93;38.09;100525.69;4968245;28;20066;-88
2022/07/24 11:26:35;;;;;;;17.88;7.03;;;;;;;37.18;37.52;100515.59;4913672;29;20052;-89
2022/07/24 11:32:08;;;;;;;11.48;6.95;;;;;;;37.65;35.88;100519.66;5639884;22;20062;-88
2022/07/24 11:37:30;;;;;;;12.45;6.88;;;;;;;37.57;35.81;100508.69;5064465;22;20047;-92
2022/07/24 11:40:42;;;;;;;11.20;6.37;;;;;;;37.52;35.42;100506.16;5008791;28;20042;-90
2022/07/24 11:43:13;;;;;;;20.80;7.03;;;;;;;36.55;37.32;100511.22;4934155;29;20077;-90
2022/07/24 11:45:55;;;;;;;14.52;7.35;;;;;;;35.99;37.85;100501.44;4944561;29;20046;-91
2022/07/24 11:48:46;;;;;;;11.85;6.15;;;;;;;35.82;38.08;100496.78;4975781;29;20031;-91
2022/07/24 11:52:22;;;;;;;13.45;6.43;;;;;;;35.53;38.88;100488.44;4959637;29;20043;-89
2022/07/24 11:55:54;;;;;;;11.57;5.70;;;;;;;35.65;38.16;100480.31;4978775;28;20136;-88
2022/07/24 12:03:04;;;;;;;11.25;6.03;;;;;;;35.67;36.85;100478.03;4979695;28;20043;-86
2022/07/24 12:06:27;;;;;;;13.32;6.00;;;;;;;35.68;37.01;100474.13;4955679;29;20099;-86
2022/07/24 12:09:07;;;;;;;;;;;;;;;35.92;35.21;100479.88;4954619;28;20044;-85
2022/07/24 12:14:31;;;;;;;9.13;5.80;;;;;;;35.47;36.39;100470.44;4150154;26;20049;-89
2022/07/24 12:17:06;;;;;;;11.65;5.72;;;;;;;35.53;35.44;100474.66;4987238;28;20539;-88
2022/07/24 12:20:53;;;;;;;10.63;5.15;;;;;;;35.26;36.31;100473.09;4978064;28;20029;-88
2022/07/24 12:23:26;;;;;;;7.63;5.03;;;;;;;35.48;36.43;100469.31;4973618;29;20054;-87
2022/07/24 12:26:03;;;;;;;12.43;5.82;;;;;;;35.43;36.13;100463.97;4976817;28;20016;-90
2022/07/24 12:32:19;;;;;;;13.65;6.10;;;;;;;35.85;35.71;100453.94;4985396;28;20039;-88
2022/07/24 12:35:24;;;;;;;11.32;5.50;;;;;;;35.78;34.89;100457.22;4976368;28;20047;-86
2022/07/24 12:37:55;;;;;;;13.00;5.40;;;;;;;35.87;35.05;100451.66;4973807;29;20042;-87
2022/07/24 12:40:25;;;;;;;11.38;5.47;;;;;;;35.61;35.74;100447.06;4949299;28;20055;-84
2022/07/24 12:43:04;;;;;;;9.60;5.38;;;;;;;35.55;35.28;100440.09;4946922;29;20106;-79
2022/07/24 12:45:30;;;;;;;14.35;5.55;;;;;;;35.57;35.91;100445.25;4959432;28;20184;-80
2022/07/24 12:48:29;;;;;;;12.27;5.43;;;;;;;35.63;36.02;100441.25;4976953;28;20113;-79
2022/07/24 12:51:10;;;;;;;10.80;5.30;;;;;;;35.69;35.23;100437.97;4966367;28;20035;-83
2022/07/24 12:53:41;;;;;;;14.25;6.53;;;;;;;35.19;36.49;100440.53;4968497;28;20041;-83
2022/07/24 12:56:13;;;;;;;12.90;5.53;;;;;;;35.02;36.77;100434.22;4989180;28;20069;-82
2022/07/24 12:59:07;;;;;;;16.50;5.80;;;;;;;34.85;37.32;100432.28;4960046;28;20055;-84
2022/07/24 13:01:48;;;;;;;10.07;5.03;;;;;;;35.04;36.80;100430.00;4983666;28;20038;-81
2022/07/24 13:04:17;;;;;;;11.50;5.47;;;;;;;34.94;37.04;100432.28;4982728;28;20039;-83
2022/07/24 13:07:29;;;;;;;13.20;5.30;;;;;;;34.99;36.82;100424.66;4977204;28;20015;-85
2022/07/24 13:09:55;;;;;;;6.95;5.95;;;;;;;35.11;36.74;100416.56;4994011;28;20039;-89
2022/07/24 13:12:57;;;;;;;12.55;6.50;;;;;;;34.95;36.95;100418.19;5038425;23;20051;-87
2022/07/24 13:15:47;;;;;;;12.25;6.00;;;;;;;34.56;37.58;100416.41;4997367;28;20026;-83